sensor_id;sensor_type;location;lat;lon;timestamp;P1;durP1;ratioP1;P2;durP2;ratioP2
22861;SDS011;11598;50.652;6.172;2023-07-24T00:01:53;11.43;;;5.28;;
22861;SDS011;11598;50.652;6.172;2023-07-24T00:11:54;12.50;;;5.07;;
22861;SDS011;11598;50.652;6.172;2023-07-24T00:21:54;10.57;;;5.35;;
22861;SDS011;11598;50.652;6.172;2023-07-24T00:31:54;7.32;;;4.40;;
22861;SDS011;11598;50.652;6.172;2023-07-24T00:41:55;14.63;;;4.55;;
22861;SDS011;11598;50.652;6.172;2023-07-24T00:51:55;8.95;;;4.13;;
22861;SDS011;11598;50.652;6.172;2023-07-24T01:01:55;10.45;;;3.92;;
22861;SDS011;11598;50.652;6.172;2023-07-24T01:22:25;8.77;;;4.10;;
22861;SDS011;11598;50.652;6.172;2023-07-24T01:32:30;8.13;;;3.83;;
22861;SDS011;11598;50.652;6.172;2023-07-24T01:42:30;14.85;;;5.35;;
22861;SDS011;11598;50.652;6.172;2023-07-24T01:52:31;7.30;;;4.60;;
22861;SDS011;11598;50.652;6.172;2023-07-24T02:02:31;12.23;;;4.80;;
22861;SDS011;11598;50.652;6.172;2023-07-24T02:12:32;15.30;;;5.68;;
22861;SDS011;11598;50.652;6.172;2023-07-24T02:22:32;13.23;;;5.57;;
22861;SDS011;11598;50.652;6.172;2023-07-24T02:32:32;22.13;;;4.85;;
22861;SDS011;11598;50.652;6.172;2023-07-24T02:42:33;8.90;;;4.60;;
22861;SDS011;11598;50.652;6.172;2023-07-24T03:02:41;26.10;;;5.95;;
22861;SDS011;11598;50.652;6.172;2023-07-24T03:12:42;13.45;;;4.90;;
22861;SDS011;11598;50.652;6.172;2023-07-24T03:22:42;11.82;;;4.82;;
22861;SDS011;11598;50.652;6.172;2023-07-24T03:32:43;14.60;;;5.75;;
22861;SDS011;11598;50.652;6.172;2023-07-24T03:42:43;8.05;;;4.45;;
22861;SDS011;11598;50.652;6.172;2023-07-24T03:52:43;11.35;;;4.68;;
22861;SDS011;11598;50.652;6.172;2023-07-24T04:02:44;14.90;;;5.55;;
22861;SDS011;11598;50.652;6.172;2023-07-24T04:12:44;15.65;;;4.97;;
22861;SDS011;11598;50.652;6.172;2023-07-24T04:22:44;10.70;;;5.72;;
22861;SDS011;11598;50.652;6.172;2023-07-24T04:32:45;14.85;;;6.47;;
22861;SDS011;11598;50.652;6.172;2023-07-24T04:42:46;11.40;;;5.70;;
22861;SDS011;11598;50.652;6.172;2023-07-24T04:52:46;10.98;;;5.80;;
22861;SDS011;11598;50.652;6.172;2023-07-24T05:02:46;16.88;;;5.68;;
22861;SDS011;11598;50.652;6.172;2023-07-24T05:12:47;9.90;;;4.47;;
22861;SDS011;11598;50.652;6.172;2023-07-24T05:22:47;9.98;;;3.97;;
22861;SDS011;11598;50.652;6.172;2023-07-24T05:32:47;9.55;;;4.30;;
22861;SDS011;11598;50.652;6.172;2023-07-24T05:42:47;7.10;;;3.83;;
22861;SDS011;11598;50.652;6.172;2023-07-24T05:52:48;11.60;;;4.18;;
22861;SDS011;11598;50.652;6.172;2023-07-24T06:02:48;8.80;;;4.63;;
22861;SDS011;11598;50.652;6.172;2023-07-24T06:12:48;10.20;;;4.55;;
22861;SDS011;11598;50.652;6.172;2023-07-24T06:22:49;9.13;;;4.20;;
22861;SDS011;11598;50.652;6.172;2023-07-24T06:32:49;9.23;;;4.30;;
22861;SDS011;11598;50.652;6.172;2023-07-24T06:42:49;8.70;;;4.15;;
22861;SDS011;11598;50.652;6.172;2023-07-24T06:52:50;10.13;;;4.10;;
22861;SDS011;11598;50.652;6.172;2023-07-24T07:02:51;8.50;;;4.18;;
22861;SDS011;11598;50.652;6.172;2023-07-24T07:12:52;7.38;;;4.10;;
22861;SDS011;11598;50.652;6.172;2023-07-24T07:22:52;8.00;;;3.83;;
22861;SDS011;11598;50.652;6.172;2023-07-24T07:32:52;8.60;;;3.85;;
22861;SDS011;11598;50.652;6.172;2023-07-24T07:42:53;8.80;;;4.05;;
22861;SDS011;11598;50.652;6.172;2023-07-24T07:52:54;6.03;;;3.30;;
22861;SDS011;11598;50.652;6.172;2023-07-24T08:02:54;5.82;;;3.13;;
22861;SDS011;11598;50.652;6.172;2023-07-24T08:12:55;7.25;;;2.38;;
22861;SDS011;11598;50.652;6.172;2023-07-24T08:22:55;4.95;;;2.40;;
22861;SDS011;11598;50.652;6.172;2023-07-24T08:32:55;5.80;;;2.72;;
22861;SDS011;11598;50.652;6.172;2023-07-24T08:42:56;6.30;;;2.30;;
22861;SDS011;11598;50.652;6.172;2023-07-24T08:52:57;4.67;;;2.07;;
22861;SDS011;11598;50.652;6.172;2023-07-24T09:02:58;4.70;;;2.10;;
22861;SDS011;11598;50.652;6.172;2023-07-24T09:12:58;5.22;;;2.45;;
22861;SDS011;11598;50.652;6.172;2023-07-24T09:22:59;5.07;;;2.33;;
22861;SDS011;11598;50.652;6.172;2023-07-24T09:32:59;6.15;;;2.53;;
22861;SDS011;11598;50.652;6.172;2023-07-24T09:42:59;6.90;;;2.67;;
22861;SDS011;11598;50.652;6.172;2023-07-24T09:53:00;5.35;;;2.80;;
22861;SDS011;11598;50.652;6.172;2023-07-24T10:03:01;6.68;;;2.60;;
22861;SDS011;11598;50.652;6.172;2023-07-24T10:13:02;5.93;;;2.67;;
22861;SDS011;11598;50.652;6.172;2023-07-24T10:23:04;7.30;;;2.80;;
22861;SDS011;11598;50.652;6.172;2023-07-24T10:33:08;5.85;;;2.97;;
22861;SDS011;11598;50.652;6.172;2023-07-24T10:43:11;4.50;;;1.85;;
22861;SDS011;11598;50.652;6.172;2023-07-24T10:53:22;3.70;;;1.75;;
22861;SDS011;11598;50.652;6.172;2023-07-24T11:03:23;2.85;;;1.20;;
22861;SDS011;11598;50.652;6.172;2023-07-24T11:13:24;2.53;;;0.90;;
22861;SDS011;11598;50.652;6.172;2023-07-24T11:23:26;3.17;;;0.80;;
22861;SDS011;11598;50.652;6.172;2023-07-24T11:33:27;20.60;;;2.20;;
22861;SDS011;11598;50.652;6.172;2023-07-24T11:43:28;2.45;;;0.75;;
22861;SDS011;11598;50.652;6.172;2023-07-24T11:53:29;4.13;;;0.90;;
22861;SDS011;11598;50.652;6.172;2023-07-24T12:03:30;4.20;;;1.13;;
22861;SDS011;11598;50.652;6.172;2023-07-24T12:13:30;2.03;;;0.85;;
22861;SDS011;11598;50.652;6.172;2023-07-24T12:23:32;2.78;;;1.20;;
22861;SDS011;11598;50.652;6.172;2023-07-24T12:33:32;2.47;;;1.10;;
22861;SDS011;11598;50.652;6.172;2023-07-24T12:43:32;3.83;;;1.27;;
22861;SDS011;11598;50.652;6.172;2023-07-24T12:53:33;2.83;;;1.20;;
22861;SDS011;11598;50.652;6.172;2023-07-24T13:03:33;5.10;;;1.70;;
22861;SDS011;11598;50.652;6.172;2023-07-24T13:13:33;6.47;;;1.80;;
22861;SDS011;11598;50.652;6.172;2023-07-24T13:23:36;5.28;;;2.22;;
22861;SDS011;11598;50.652;6.172;2023-07-24T13:33:37;10.35;;;2.92;;
22861;SDS011;11598;50.652;6.172;2023-07-24T13:43:37;10.15;;;2.92;;
22861;SDS011;11598;50.652;6.172;2023-07-24T13:53:37;9.77;;;3.63;;
22861;SDS011;11598;50.652;6.172;2023-07-24T14:03:38;6.13;;;1.80;;
22861;SDS011;11598;50.652;6.172;2023-07-24T14:13:38;7.53;;;2.30;;
22861;SDS011;11598;50.652;6.172;2023-07-24T14:23:38;11.27;;;3.10;;
22861;SDS011;11598;50.652;6.172;2023-07-24T14:33:38;5.22;;;2.17;;
22861;SDS011;11598;50.652;6.172;2023-07-24T14:43:42;5.45;;;2.55;;
22861;SDS011;11598;50.652;6.172;2023-07-24T14:53:42;6.03;;;3.37;;
22861;SDS011;11598;50.652;6.172;2023-07-24T15:03:42;7.45;;;4.57;;
22861;SDS011;11598;50.652;6.172;2023-07-24T15:13:43;6.55;;;3.90;;
22861;SDS011;11598;50.652;6.172;2023-07-24T15:23:43;8.60;;;4.32;;
22861;SDS011;11598;50.652;6.172;2023-07-24T15:33:43;7.70;;;4.00;;
22861;SDS011;11598;50.652;6.172;2023-07-24T15:43:44;6.90;;;3.92;;
22861;SDS011;11598;50.652;6.172;2023-07-24T15:53:44;9.98;;;4.70;;
22861;SDS011;11598;50.652;6.172;2023-07-24T16:03:45;8.10;;;4.13;;
22861;SDS011;11598;50.652;6.172;2023-07-24T16:13:46;8.25;;;4.13;;
22861;SDS011;11598;50.652;6.172;2023-07-24T16:23:46;8.75;;;3.90;;
22861;SDS011;11598;50.652;6.172;2023-07-24T16:33:46;9.38;;;3.28;;
22861;SDS011;11598;50.652;6.172;2023-07-24T16:43:47;6.32;;;3.03;;
22861;SDS011;11598;50.652;6.172;2023-07-24T16:53:47;6.80;;;3.20;;
22861;SDS011;11598;50.652;6.172;2023-07-24T17:03:47;6.75;;;2.58;;
22861;SDS011;11598;50.652;6.172;2023-07-24T17:13:49;5.30;;;2.20;;
22861;SDS011;11598;50.652;6.172;2023-07-24T17:23:49;4.45;;;1.83;;
22861;SDS011;11598;50.652;6.172;2023-07-24T17:33:49;4.95;;;1.92;;
22861;SDS011;11598;50.652;6.172;2023-07-24T17:43:50;6.38;;;2.10;;
22861;SDS011;11598;50.652;6.172;2023-07-24T17:53:50;16.73;;;4.25;;
22861;SDS011;11598;50.652;6.172;2023-07-24T18:03:50;10.52;;;5.53;;
22861;SDS011;11598;50.652;6.172;2023-07-24T18:13:52;43.97;;;10.02;;
22861;SDS011;11598;50.652;6.172;2023-07-24T18:23:52;10.48;;;5.15;;
22861;SDS011;11598;50.652;6.172;2023-07-24T18:33:53;18.75;;;7.30;;
22861;SDS011;11598;50.652;6.172;2023-07-24T18:43:54;33.92;;;10.13;;
22861;SDS011;11598;50.652;6.172;2023-07-24T18:53:54;17.90;;;7.57;;
22861;SDS011;11598;50.652;6.172;2023-07-24T19:03:54;48.38;;;11.98;;
22861;SDS011;11598;50.652;6.172;2023-07-24T19:13:55;65.82;;;14.65;;
22861;SDS011;11598;50.652;6.172;2023-07-24T19:23:55;70.72;;;13.32;;
22861;SDS011;11598;50.652;6.172;2023-07-24T19:33:55;15.77;;;7.35;;
22861;SDS011;11598;50.652;6.172;2023-07-24T19:43:55;34.85;;;10.60;;
22861;SDS011;11598;50.652;6.172;2023-07-24T19:53:56;101.47;;;17.27;;
22861;SDS011;11598;50.652;6.172;2023-07-24T20:03:56;16.08;;;7.47;;
22861;SDS011;11598;50.652;6.172;2023-07-24T20:13:57;46.50;;;11.18;;
22861;SDS011;11598;50.652;6.172;2023-07-24T20:24:10;134.32;;;19.25;;
22861;SDS011;11598;50.652;6.172;2023-07-24T20:34:11;171.52;;;22.65;;
22861;SDS011;11598;50.652;6.172;2023-07-24T20:44:12;15.13;;;7.57;;
22861;SDS011;11598;50.652;6.172;2023-07-24T20:54:12;56.55;;;12.73;;
22861;SDS011;11598;50.652;6.172;2023-07-24T21:04:12;17.63;;;8.88;;
22861;SDS011;11598;50.652;6.172;2023-07-24T21:14:13;158.73;;;22.00;;
22861;SDS011;11598;50.652;6.172;2023-07-24T21:24:13;150.52;;;22.23;;
22861;SDS011;11598;50.652;6.172;2023-07-24T21:34:13;136.00;;;19.63;;
22861;SDS011;11598;50.652;6.172;2023-07-24T21:44:14;128.18;;;19.50;;
22861;SDS011;11598;50.652;6.172;2023-07-24T21:54:14;26.40;;;12.90;;
22861;SDS011;11598;50.652;6.172;2023-07-24T22:04:14;15.18;;;9.85;;
22861;SDS011;11598;50.652;6.172;2023-07-24T22:14:15;17.98;;;12.05;;
22861;SDS011;11598;50.652;6.172;2023-07-24T22:24:15;167.50;;;27.40;;
22861;SDS011;11598;50.652;6.172;2023-07-24T22:34:15;99.80;;;20.92;;
22861;SDS011;11598;50.652;6.172;2023-07-24T22:44:16;30.83;;;17.85;;
22861;SDS011;11598;50.652;6.172;2023-07-24T22:54:16;57.95;;;17.33;;
22861;SDS011;11598;50.652;6.172;2023-07-24T23:04:16;127.22;;;24.90;;
22861;SDS011;11598;50.652;6.172;2023-07-24T23:14:17;192.80;;;30.53;;
22861;SDS011;11598;50.652;6.172;2023-07-24T23:24:17;179.75;;;27.77;;
22861;SDS011;11598;50.652;6.172;2023-07-24T23:34:18;251.20;;;30.20;;
22861;SDS011;11598;50.652;6.172;2023-07-24T23:44:18;128.63;;;25.05;;
22861;SDS011;11598;50.652;6.172;2023-07-24T23:54:18;132.73;;;24.63;;
